sensor_id;sensor_type;location;lat;lon;timestamp;P1;durP1;ratioP1;P2;durP2;ratioP2
72369;SDS011;60343;-32.030;115.880;2022-12-10T00:01:39;2.17;;;0.40;;
72369;SDS011;60343;-32.030;115.880;2022-12-10T00:04:08;2.38;;;0.60;;
72369;SDS011;60343;-32.030;115.880;2022-12-10T00:06:36;2.28;;;0.40;;
72369;SDS011;60343;-32.030;115.880;2022-12-10T00:09:06;1.92;;;0.40;;
72369;SDS011;60343;-32.030;115.880;2022-12-10T00:11:36;2.20;;;0.38;;
72369;SDS011;60343;-32.030;115.880;2022-12-10T00:14:05;2.13;;;0.30;;
72369;SDS011;60343;-32.030;115.880;2022-12-10T00:16:38;2.58;;;0.35;;
72369;SDS011;60343;-32.030;115.880;2022-12-10T00:19:06;2.90;;;0.50;;
72369;SDS011;60343;-32.030;115.880;2022-12-10T00:21:34;3.67;;;0.47;;
72369;SDS011;60343;-32.030;115.880;2022-12-10T00:24:02;1.45;;;0.13;;
72369;SDS011;60343;-32.030;115.880;2022-12-10T00:26:31;3.28;;;0.30;;
72369;SDS011;60343;-32.030;115.880;2022-12-10T00:29:01;1.35;;;0.20;;
72369;SDS011;60343;-32.030;115.880;2022-12-10T00:31:31;2.33;;;0.30;;
72369;SDS011;60343;-32.030;115.880;2022-12-10T00:34:06;5.25;;;0.35;;
72369;SDS011;60343;-32.030;115.880;2022-12-10T00:36:35;4.45;;;0.40;;
72369;SDS011;60343;-32.030;115.880;2022-12-10T00:39:04;2.67;;;0.30;;
72369;SDS011;60343;-32.030;115.880;2022-12-10T00:41:32;3.97;;;0.47;;
72369;SDS011;60343;-32.030;115.880;2022-12-10T00:44:00;2.50;;;0.35;;
72369;SDS011;60343;-32.030;115.880;2022-12-10T00:46:28;2.90;;;0.30;;
72369;SDS011;60343;-32.030;115.880;2022-12-10T00:48:55;2.58;;;0.30;;
72369;SDS011;60343;-32.030;115.880;2022-12-10T00:51:29;4.32;;;0.80;;
72369;SDS011;60343;-32.030;115.880;2022-12-10T00:53:58;4.32;;;0.43;;
72369;SDS011;60343;-32.030;115.880;2022-12-10T00:56:28;3.13;;;0.30;;
72369;SDS011;60343;-32.030;115.880;2022-12-10T00:58:57;3.60;;;0.30;;
72369;SDS011;60343;-32.030;115.880;2022-12-10T01:01:26;2.45;;;0.20;;
72369;SDS011;60343;-32.030;115.880;2022-12-10T01:03:56;4.25;;;0.50;;
72369;SDS011;60343;-32.030;115.880;2022-12-10T01:06:34;3.15;;;0.32;;
72369;SDS011;60343;-32.030;115.880;2022-12-10T01:09:06;1.05;;;0.20;;
72369;SDS011;60343;-32.030;115.880;2022-12-10T01:11:36;2.58;;;0.30;;
72369;SDS011;60343;-32.030;115.880;2022-12-10T01:14:05;4.05;;;0.40;;
72369;SDS011;60343;-32.030;115.880;2022-12-10T01:16:34;2.10;;;0.22;;
72369;SDS011;60343;-32.030;115.880;2022-12-10T01:19:03;2.40;;;0.30;;
72369;SDS011;60343;-32.030;115.880;2022-12-10T01:21:41;1.30;;;0.15;;
72369;SDS011;60343;-32.030;115.880;2022-12-10T01:24:09;1.75;;;0.30;;
72369;SDS011;60343;-32.030;115.880;2022-12-10T01:26:37;2.58;;;0.20;;
72369;SDS011;60343;-32.030;115.880;2022-12-10T01:29:04;2.30;;;0.30;;
72369;SDS011;60343;-32.030;115.880;2022-12-10T01:31:33;2.20;;;0.25;;
72369;SDS011;60343;-32.030;115.880;2022-12-10T01:34:02;1.77;;;0.28;;
72369;SDS011;60343;-32.030;115.880;2022-12-10T01:36:31;5.65;;;0.63;;
72369;SDS011;60343;-32.030;115.880;2022-12-10T01:39:06;1.42;;;0.20;;
72369;SDS011;60343;-32.030;115.880;2022-12-10T01:41:36;3.55;;;0.30;;
72369;SDS011;60343;-32.030;115.880;2022-12-10T01:47:02;2.67;;;0.43;;
72369;SDS011;60343;-32.030;115.880;2022-12-10T01:49:32;3.22;;;0.30;;
72369;SDS011;60343;-32.030;115.880;2022-12-10T01:52:02;1.58;;;0.20;;
72369;SDS011;60343;-32.030;115.880;2022-12-10T01:54:37;3.05;;;0.38;;
72369;SDS011;60343;-32.030;115.880;2022-12-10T01:57:07;1.17;;;0.22;;
72369;SDS011;60343;-32.030;115.880;2022-12-10T01:59:37;3.75;;;0.30;;
72369;SDS011;60343;-32.030;115.880;2022-12-10T02:02:07;2.58;;;0.40;;
72369;SDS011;60343;-32.030;115.880;2022-12-10T02:04:39;1.67;;;0.30;;
72369;SDS011;60343;-32.030;115.880;2022-12-10T02:07:13;2.72;;;0.50;;
72369;SDS011;60343;-32.030;115.880;2022-12-10T02:09:55;1.95;;;0.28;;
72369;SDS011;60343;-32.030;115.880;2022-12-10T02:12:35;4.05;;;0.40;;
72369;SDS011;60343;-32.030;115.880;2022-12-10T02:15:10;2.63;;;0.30;;
72369;SDS011;60343;-32.030;115.880;2022-12-10T02:17:42;2.88;;;0.35;;
72369;SDS011;60343;-32.030;115.880;2022-12-10T02:20:12;1.45;;;0.38;;
72369;SDS011;60343;-32.030;115.880;2022-12-10T02:22:44;2.10;;;0.20;;
72369;SDS011;60343;-32.030;115.880;2022-12-10T02:27:52;2.85;;;0.40;;
72369;SDS011;60343;-32.030;115.880;2022-12-10T02:30:33;1.25;;;0.20;;
72369;SDS011;60343;-32.030;115.880;2022-12-10T02:33:02;1.73;;;0.20;;
72369;SDS011;60343;-32.030;115.880;2022-12-10T02:35:32;2.35;;;0.40;;
72369;SDS011;60343;-32.030;115.880;2022-12-10T02:38:03;1.92;;;0.30;;
72369;SDS011;60343;-32.030;115.880;2022-12-10T02:40:33;1.27;;;0.20;;
72369;SDS011;60343;-32.030;115.880;2022-12-10T02:43:04;3.13;;;0.35;;
72369;SDS011;60343;-32.030;115.880;2022-12-10T02:45:38;3.20;;;0.47;;
72369;SDS011;60343;-32.030;115.880;2022-12-10T02:48:07;2.58;;;0.28;;
72369;SDS011;60343;-32.030;115.880;2022-12-10T02:50:35;3.20;;;0.60;;
72369;SDS011;60343;-32.030;115.880;2022-12-10T02:53:03;2.42;;;0.28;;
72369;SDS011;60343;-32.030;115.880;2022-12-10T02:55:33;2.38;;;0.40;;
72369;SDS011;60343;-32.030;115.880;2022-12-10T02:58:14;2.40;;;0.25;;
72369;SDS011;60343;-32.030;115.880;2022-12-10T03:00:58;0.95;;;0.20;;
72369;SDS011;60343;-32.030;115.880;2022-12-10T03:03:38;2.70;;;0.40;;
72369;SDS011;60343;-32.030;115.880;2022-12-10T03:06:11;2.40;;;0.30;;
72369;SDS011;60343;-32.030;115.880;2022-12-10T03:08:45;1.52;;;0.15;;
72369;SDS011;60343;-32.030;115.880;2022-12-10T03:11:16;2.67;;;0.30;;
72369;SDS011;60343;-32.030;115.880;2022-12-10T03:13:47;2.35;;;0.20;;
72369;SDS011;60343;-32.030;115.880;2022-12-10T03:16:26;1.30;;;0.20;;
72369;SDS011;60343;-32.030;115.880;2022-12-10T03:19:00;2.28;;;0.40;;
72369;SDS011;60343;-32.030;115.880;2022-12-10T03:21:30;1.80;;;0.30;;
72369;SDS011;60343;-32.030;115.880;2022-12-10T03:24:02;1.75;;;0.20;;
72369;SDS011;60343;-32.030;115.880;2022-12-10T03:26:31;2.83;;;0.40;;
72369;SDS011;60343;-32.030;115.880;2022-12-10T03:29:00;2.55;;;0.40;;
72369;SDS011;60343;-32.030;115.880;2022-12-10T03:31:37;5.50;;;0.55;;
72369;SDS011;60343;-32.030;115.880;2022-12-10T03:34:06;3.20;;;0.32;;
72369;SDS011;60343;-32.030;115.880;2022-12-10T03:36:35;2.38;;;0.40;;
72369;SDS011;60343;-32.030;115.880;2022-12-10T03:39:04;3.53;;;0.35;;
72369;SDS011;60343;-32.030;115.880;2022-12-10T03:41:33;2.22;;;0.30;;
72369;SDS011;60343;-32.030;115.880;2022-12-10T03:44:01;2.30;;;0.30;;
72369;SDS011;60343;-32.030;115.880;2022-12-10T03:46:29;1.80;;;0.30;;
72369;SDS011;60343;-32.030;115.880;2022-12-10T03:49:03;3.63;;;0.28;;
72369;SDS011;60343;-32.030;115.880;2022-12-10T03:51:31;1.63;;;0.35;;
72369;SDS011;60343;-32.030;115.880;2022-12-10T03:54:01;1.88;;;0.30;;
72369;SDS011;60343;-32.030;115.880;2022-12-10T03:56:29;2.80;;;0.43;;
72369;SDS011;60343;-32.030;115.880;2022-12-10T03:58:56;3.45;;;0.20;;
72369;SDS011;60343;-32.030;115.880;2022-12-10T04:01:24;2.58;;;0.32;;
72369;SDS011;60343;-32.030;115.880;2022-12-10T04:03:57;3.10;;;0.30;;
72369;SDS011;60343;-32.030;115.880;2022-12-10T04:06:25;2.05;;;0.20;;
72369;SDS011;60343;-32.030;115.880;2022-12-10T04:08:53;1.80;;;0.20;;
72369;SDS011;60343;-32.030;115.880;2022-12-10T04:11:20;1.00;;;0.20;;
72369;SDS011;60343;-32.030;115.880;2022-12-10T04:13:48;2.90;;;0.50;;
72369;SDS011;60343;-32.030;115.880;2022-12-10T04:16:16;1.80;;;0.22;;
72369;SDS011;60343;-32.030;115.880;2022-12-10T04:18:44;2.75;;;0.30;;
72369;SDS011;60343;-32.030;115.880;2022-12-10T04:21:17;1.55;;;0.20;;
72369;SDS011;60343;-32.030;115.880;2022-12-10T04:23:45;1.30;;;0.30;;
72369;SDS011;60343;-32.030;115.880;2022-12-10T04:26:13;2.30;;;0.32;;
72369;SDS011;60343;-32.030;115.880;2022-12-10T04:28:40;1.80;;;0.30;;
72369;SDS011;60343;-32.030;115.880;2022-12-10T04:31:08;2.22;;;0.40;;
72369;SDS011;60343;-32.030;115.880;2022-12-10T04:33:36;3.42;;;0.40;;
72369;SDS011;60343;-32.030;115.880;2022-12-10T04:36:04;2.15;;;0.20;;
72369;SDS011;60343;-32.030;115.880;2022-12-10T04:38:37;2.67;;;0.30;;
72369;SDS011;60343;-32.030;115.880;2022-12-10T04:41:05;2.50;;;0.50;;
72369;SDS011;60343;-32.030;115.880;2022-12-10T04:43:33;3.22;;;0.43;;
72369;SDS011;60343;-32.030;115.880;2022-12-10T04:46:00;3.58;;;0.38;;
72369;SDS011;60343;-32.030;115.880;2022-12-10T04:48:28;6.32;;;0.40;;
72369;SDS011;60343;-32.030;115.880;2022-12-10T04:50:56;1.20;;;0.20;;
72369;SDS011;60343;-32.030;115.880;2022-12-10T04:53:23;4.28;;;0.38;;
72369;SDS011;60343;-32.030;115.880;2022-12-10T04:55:57;2.92;;;0.28;;
72369;SDS011;60343;-32.030;115.880;2022-12-10T04:58:24;4.07;;;0.38;;
72369;SDS011;60343;-32.030;115.880;2022-12-10T05:00:52;2.08;;;0.30;;
72369;SDS011;60343;-32.030;115.880;2022-12-10T05:03:26;1.73;;;0.30;;
72369;SDS011;60343;-32.030;115.880;2022-12-10T05:05:53;1.50;;;0.20;;
72369;SDS011;60343;-32.030;115.880;2022-12-10T05:08:21;4.88;;;0.50;;
72369;SDS011;60343;-32.030;115.880;2022-12-10T05:10:49;2.65;;;0.22;;
72369;SDS011;60343;-32.030;115.880;2022-12-10T05:13:22;4.53;;;0.38;;
72369;SDS011;60343;-32.030;115.880;2022-12-10T05:15:50;1.40;;;0.15;;
72369;SDS011;60343;-32.030;115.880;2022-12-10T05:18:17;0.73;;;0.20;;
72369;SDS011;60343;-32.030;115.880;2022-12-10T05:20:45;2.45;;;0.20;;
72369;SDS011;60343;-32.030;115.880;2022-12-10T05:23:12;1.02;;;0.10;;
72369;SDS011;60343;-32.030;115.880;2022-12-10T05:25:40;1.27;;;0.10;;
72369;SDS011;60343;-32.030;115.880;2022-12-10T05:28:08;1.48;;;0.30;;
72369;SDS011;60343;-32.030;115.880;2022-12-10T05:30:41;1.75;;;0.20;;
72369;SDS011;60343;-32.030;115.880;2022-12-10T05:33:09;1.33;;;0.20;;
72369;SDS011;60343;-32.030;115.880;2022-12-10T05:35:37;0.60;;;0.20;;
72369;SDS011;60343;-32.030;115.880;2022-12-10T05:38:04;0.75;;;0.10;;
72369;SDS011;60343;-32.030;115.880;2022-12-10T05:40:34;1.08;;;0.40;;
72369;SDS011;60343;-32.030;115.880;2022-12-10T05:43:02;2.90;;;0.20;;
72369;SDS011;60343;-32.030;115.880;2022-12-10T05:45:31;0.75;;;0.13;;
72369;SDS011;60343;-32.030;115.880;2022-12-10T05:48:05;0.47;;;0.10;;
72369;SDS011;60343;-32.030;115.880;2022-12-10T05:50:32;3.20;;;0.10;;
72369;SDS011;60343;-32.030;115.880;2022-12-10T05:53:00;4.53;;;0.20;;
72369;SDS011;60343;-32.030;115.880;2022-12-10T05:55:28;5.13;;;0.40;;
72369;SDS011;60343;-32.030;115.880;2022-12-10T05:57:55;1.42;;;0.30;;
72369;SDS011;60343;-32.030;115.880;2022-12-10T06:00:23;2.72;;;0.32;;
72369;SDS011;60343;-32.030;115.880;2022-12-10T06:02:51;1.10;;;0.30;;
72369;SDS011;60343;-32.030;115.880;2022-12-10T06:05:24;2.25;;;0.20;;
72369;SDS011;60343;-32.030;115.880;2022-12-10T06:07:52;2.28;;;0.13;;
72369;SDS011;60343;-32.030;115.880;2022-12-10T06:10:19;0.30;;;0.10;;
72369;SDS011;60343;-32.030;115.880;2022-12-10T06:12:48;1.33;;;0.13;;
72369;SDS011;60343;-32.030;115.880;2022-12-10T06:15:16;1.60;;;0.22;;
72369;SDS011;60343;-32.030;115.880;2022-12-10T06:17:44;0.93;;;0.10;;
72369;SDS011;60343;-32.030;115.880;2022-12-10T06:20:12;2.55;;;0.30;;
72369;SDS011;60343;-32.030;115.880;2022-12-10T06:22:45;0.98;;;0.17;;
72369;SDS011;60343;-32.030;115.880;2022-12-10T06:25:13;11.15;;;0.60;;
72369;SDS011;60343;-32.030;115.880;2022-12-10T06:27:41;1.58;;;0.30;;
72369;SDS011;60343;-32.030;115.880;2022-12-10T06:30:09;2.28;;;0.20;;
72369;SDS011;60343;-32.030;115.880;2022-12-10T06:32:37;2.03;;;0.30;;
72369;SDS011;60343;-32.030;115.880;2022-12-10T06:35:05;1.85;;;0.20;;
72369;SDS011;60343;-32.030;115.880;2022-12-10T06:37:33;3.83;;;0.25;;
72369;SDS011;60343;-32.030;115.880;2022-12-10T06:40:07;1.48;;;0.20;;
72369;SDS011;60343;-32.030;115.880;2022-12-10T06:42:35;1.65;;;0.30;;
72369;SDS011;60343;-32.030;115.880;2022-12-10T06:45:02;2.50;;;0.22;;
72369;SDS011;60343;-32.030;115.880;2022-12-10T06:47:30;2.95;;;0.30;;
72369;SDS011;60343;-32.030;115.880;2022-12-10T06:49:58;3.53;;;0.32;;
72369;SDS011;60343;-32.030;115.880;2022-12-10T06:52:26;5.72;;;0.57;;
72369;SDS011;60343;-32.030;115.880;2022-12-10T06:54:54;2.88;;;0.40;;
72369;SDS011;60343;-32.030;115.880;2022-12-10T06:57:28;5.60;;;0.43;;
72369;SDS011;60343;-32.030;115.880;2022-12-10T06:59:59;2.55;;;0.17;;
72369;SDS011;60343;-32.030;115.880;2022-12-10T07:02:35;2.30;;;0.35;;
72369;SDS011;60343;-32.030;115.880;2022-12-10T07:05:03;7.28;;;0.47;;
72369;SDS011;60343;-32.030;115.880;2022-12-10T07:07:31;3.85;;;0.40;;
72369;SDS011;60343;-32.030;115.880;2022-12-10T07:09:58;7.30;;;0.50;;
72369;SDS011;60343;-32.030;115.880;2022-12-10T07:12:32;2.85;;;0.47;;
72369;SDS011;60343;-32.030;115.880;2022-12-10T07:15:00;1.48;;;0.30;;
72369;SDS011;60343;-32.030;115.880;2022-12-10T07:17:28;3.97;;;0.40;;
72369;SDS011;60343;-32.030;115.880;2022-12-10T07:19:56;10.82;;;0.77;;
72369;SDS011;60343;-32.030;115.880;2022-12-10T07:22:24;2.13;;;0.30;;
72369;SDS011;60343;-32.030;115.880;2022-12-10T07:24:51;2.83;;;0.43;;
72369;SDS011;60343;-32.030;115.880;2022-12-10T07:27:19;2.97;;;0.55;;
72369;SDS011;60343;-32.030;115.880;2022-12-10T07:29:54;4.68;;;0.50;;
72369;SDS011;60343;-32.030;115.880;2022-12-10T07:32:21;3.88;;;0.50;;
72369;SDS011;60343;-32.030;115.880;2022-12-10T07:34:49;3.63;;;0.52;;
72369;SDS011;60343;-32.030;115.880;2022-12-10T07:37:17;6.38;;;0.65;;
72369;SDS011;60343;-32.030;115.880;2022-12-10T07:39:45;6.03;;;0.43;;
72369;SDS011;60343;-32.030;115.880;2022-12-10T07:42:12;2.83;;;0.50;;
72369;SDS011;60343;-32.030;115.880;2022-12-10T07:44:40;3.97;;;0.50;;
72369;SDS011;60343;-32.030;115.880;2022-12-10T07:47:13;3.00;;;0.45;;
72369;SDS011;60343;-32.030;115.880;2022-12-10T07:49:41;4.28;;;0.73;;
72369;SDS011;60343;-32.030;115.880;2022-12-10T07:52:09;1.80;;;0.30;;
72369;SDS011;60343;-32.030;115.880;2022-12-10T07:54:37;4.22;;;0.50;;
72369;SDS011;60343;-32.030;115.880;2022-12-10T07:57:04;4.32;;;0.50;;
72369;SDS011;60343;-32.030;115.880;2022-12-10T07:59:32;4.95;;;0.50;;
72369;SDS011;60343;-32.030;115.880;2022-12-10T08:02:00;2.75;;;0.30;;
72369;SDS011;60343;-32.030;115.880;2022-12-10T08:04:33;3.58;;;0.40;;
72369;SDS011;60343;-32.030;115.880;2022-12-10T08:07:01;2.47;;;0.35;;
72369;SDS011;60343;-32.030;115.880;2022-12-10T08:09:28;3.08;;;0.50;;
72369;SDS011;60343;-32.030;115.880;2022-12-10T08:11:56;2.83;;;0.40;;
72369;SDS011;60343;-32.030;115.880;2022-12-10T08:14:24;2.95;;;0.40;;
72369;SDS011;60343;-32.030;115.880;2022-12-10T08:16:51;4.22;;;0.52;;
72369;SDS011;60343;-32.030;115.880;2022-12-10T08:19:19;5.70;;;0.55;;
72369;SDS011;60343;-32.030;115.880;2022-12-10T08:21:52;4.43;;;0.70;;
72369;SDS011;60343;-32.030;115.880;2022-12-10T08:24:20;4.97;;;0.90;;
72369;SDS011;60343;-32.030;115.880;2022-12-10T08:26:48;6.25;;;0.90;;
72369;SDS011;60343;-32.030;115.880;2022-12-10T08:29:15;6.70;;;0.90;;
72369;SDS011;60343;-32.030;115.880;2022-12-10T08:31:43;3.80;;;1.10;;
72369;SDS011;60343;-32.030;115.880;2022-12-10T08:34:12;3.92;;;1.00;;
72369;SDS011;60343;-32.030;115.880;2022-12-10T08:36:40;2.22;;;0.73;;
72369;SDS011;60343;-32.030;115.880;2022-12-10T08:39:14;5.22;;;1.13;;
72369;SDS011;60343;-32.030;115.880;2022-12-10T08:41:42;5.18;;;1.05;;
72369;SDS011;60343;-32.030;115.880;2022-12-10T08:44:10;6.45;;;0.90;;
72369;SDS011;60343;-32.030;115.880;2022-12-10T08:46:38;6.57;;;0.93;;
72369;SDS011;60343;-32.030;115.880;2022-12-10T08:49:06;4.22;;;0.90;;
72369;SDS011;60343;-32.030;115.880;2022-12-10T08:51:34;5.95;;;1.00;;
72369;SDS011;60343;-32.030;115.880;2022-12-10T08:54:02;2.95;;;0.60;;
72369;SDS011;60343;-32.030;115.880;2022-12-10T08:56:35;6.18;;;0.80;;
72369;SDS011;60343;-32.030;115.880;2022-12-10T08:59:03;6.22;;;1.00;;
72369;SDS011;60343;-32.030;115.880;2022-12-10T09:01:31;5.05;;;0.80;;
72369;SDS011;60343;-32.030;115.880;2022-12-10T09:03:59;5.97;;;0.82;;
72369;SDS011;60343;-32.030;115.880;2022-12-10T09:06:27;3.13;;;0.70;;
72369;SDS011;60343;-32.030;115.880;2022-12-10T09:08:55;3.80;;;0.80;;
72369;SDS011;60343;-32.030;115.880;2022-12-10T09:11:23;4.45;;;0.80;;
72369;SDS011;60343;-32.030;115.880;2022-12-10T09:13:58;3.28;;;0.70;;
72369;SDS011;60343;-32.030;115.880;2022-12-10T09:16:29;8.02;;;1.10;;
72369;SDS011;60343;-32.030;115.880;2022-12-10T09:18:58;2.67;;;0.63;;
72369;SDS011;60343;-32.030;115.880;2022-12-10T09:21:26;3.33;;;0.70;;
72369;SDS011;60343;-32.030;115.880;2022-12-10T09:23:54;3.92;;;0.90;;
72369;SDS011;60343;-32.030;115.880;2022-12-10T09:26:21;2.85;;;0.43;;
72369;SDS011;60343;-32.030;115.880;2022-12-10T09:28:49;7.93;;;1.10;;
72369;SDS011;60343;-32.030;115.880;2022-12-10T09:31:23;3.38;;;0.60;;
72369;SDS011;60343;-32.030;115.880;2022-12-10T09:33:52;8.27;;;1.13;;
72369;SDS011;60343;-32.030;115.880;2022-12-10T09:36:23;7.07;;;0.77;;
72369;SDS011;60343;-32.030;115.880;2022-12-10T09:38:51;3.80;;;0.80;;
72369;SDS011;60343;-32.030;115.880;2022-12-10T09:41:34;4.72;;;0.70;;
72369;SDS011;60343;-32.030;115.880;2022-12-10T09:44:23;6.18;;;0.82;;
72369;SDS011;60343;-32.030;115.880;2022-12-10T09:47:07;7.03;;;0.98;;
72369;SDS011;60343;-32.030;115.880;2022-12-10T09:49:39;5.25;;;0.80;;
72369;SDS011;60343;-32.030;115.880;2022-12-10T09:52:16;7.50;;;0.80;;
72369;SDS011;60343;-32.030;115.880;2022-12-10T09:54:48;5.50;;;0.73;;
72369;SDS011;60343;-32.030;115.880;2022-12-10T09:57:19;3.83;;;0.52;;
72369;SDS011;60343;-32.030;115.880;2022-12-10T09:59:50;5.38;;;0.88;;
72369;SDS011;60343;-32.030;115.880;2022-12-10T10:02:28;4.20;;;0.52;;
72369;SDS011;60343;-32.030;115.880;2022-12-10T10:04:59;9.43;;;0.80;;
72369;SDS011;60343;-32.030;115.880;2022-12-10T10:07:36;5.55;;;0.82;;
72369;SDS011;60343;-32.030;115.880;2022-12-10T10:10:12;5.25;;;0.70;;
72369;SDS011;60343;-32.030;115.880;2022-12-10T10:15:18;5.25;;;0.80;;
72369;SDS011;60343;-32.030;115.880;2022-12-10T10:18:02;3.42;;;0.60;;
72369;SDS011;60343;-32.030;115.880;2022-12-10T10:23:35;5.07;;;0.70;;
72369;SDS011;60343;-32.030;115.880;2022-12-10T10:26:03;5.60;;;0.70;;
72369;SDS011;60343;-32.030;115.880;2022-12-10T10:28:30;4.07;;;0.65;;
72369;SDS011;60343;-32.030;115.880;2022-12-10T10:30:58;6.32;;;0.68;;
72369;SDS011;60343;-32.030;115.880;2022-12-10T10:33:31;5.82;;;0.70;;
72369;SDS011;60343;-32.030;115.880;2022-12-10T10:36:15;3.40;;;0.50;;
72369;SDS011;60343;-32.030;115.880;2022-12-10T10:38:48;4.70;;;0.63;;
72369;SDS011;60343;-32.030;115.880;2022-12-10T10:41:16;6.95;;;0.70;;
72369;SDS011;60343;-32.030;115.880;2022-12-10T10:43:44;5.53;;;0.70;;
72369;SDS011;60343;-32.030;115.880;2022-12-10T10:46:12;3.47;;;0.68;;
72369;SDS011;60343;-32.030;115.880;2022-12-10T10:48:46;2.67;;;0.50;;
72369;SDS011;60343;-32.030;115.880;2022-12-10T10:51:17;5.75;;;0.57;;
72369;SDS011;60343;-32.030;115.880;2022-12-10T10:53:46;6.10;;;0.80;;
72369;SDS011;60343;-32.030;115.880;2022-12-10T10:56:15;5.15;;;0.55;;
72369;SDS011;60343;-32.030;115.880;2022-12-10T10:58:52;4.38;;;0.70;;
72369;SDS011;60343;-32.030;115.880;2022-12-10T11:01:23;4.63;;;0.60;;
72369;SDS011;60343;-32.030;115.880;2022-12-10T11:03:59;6.50;;;0.60;;
72369;SDS011;60343;-32.030;115.880;2022-12-10T11:06:27;5.75;;;0.63;;
72369;SDS011;60343;-32.030;115.880;2022-12-10T11:08:56;4.00;;;0.47;;
72369;SDS011;60343;-32.030;115.880;2022-12-10T11:11:35;4.82;;;0.70;;
72369;SDS011;60343;-32.030;115.880;2022-12-10T11:16:51;5.22;;;0.50;;
72369;SDS011;60343;-32.030;115.880;2022-12-10T11:19:32;4.70;;;0.65;;
72369;SDS011;60343;-32.030;115.880;2022-12-10T11:22:14;5.13;;;0.47;;
72369;SDS011;60343;-32.030;115.880;2022-12-10T11:24:43;3.70;;;0.40;;
72369;SDS011;60343;-32.030;115.880;2022-12-10T11:27:13;3.28;;;0.50;;
72369;SDS011;60343;-32.030;115.880;2022-12-10T11:29:53;4.40;;;0.40;;
72369;SDS011;60343;-32.030;115.880;2022-12-10T11:32:34;6.00;;;0.60;;
72369;SDS011;60343;-32.030;115.880;2022-12-10T11:37:48;3.72;;;0.50;;
72369;SDS011;60343;-32.030;115.880;2022-12-10T11:40:29;5.53;;;0.60;;
72369;SDS011;60343;-32.030;115.880;2022-12-10T11:43:04;3.47;;;0.50;;
72369;SDS011;60343;-32.030;115.880;2022-12-10T11:45:49;4.72;;;0.50;;
72369;SDS011;60343;-32.030;115.880;2022-12-10T11:48:30;3.50;;;0.50;;
72369;SDS011;60343;-32.030;115.880;2022-12-10T11:51:16;3.30;;;0.40;;
72369;SDS011;60343;-32.030;115.880;2022-12-10T11:53:53;6.47;;;0.68;;
72369;SDS011;60343;-32.030;115.880;2022-12-10T11:56:34;5.40;;;0.60;;
72369;SDS011;60343;-32.030;115.880;2022-12-10T11:59:11;4.78;;;0.63;;
72369;SDS011;60343;-32.030;115.880;2022-12-10T12:01:57;2.75;;;0.40;;
72369;SDS011;60343;-32.030;115.880;2022-12-10T12:04:42;4.68;;;0.50;;
72369;SDS011;60343;-32.030;115.880;2022-12-10T12:07:28;2.95;;;0.50;;
72369;SDS011;60343;-32.030;115.880;2022-12-10T12:10:10;4.93;;;0.52;;
72369;SDS011;60343;-32.030;115.880;2022-12-10T12:13:10;5.32;;;0.65;;
72369;SDS011;60343;-32.030;115.880;2022-12-10T12:15:42;3.40;;;0.30;;
72369;SDS011;60343;-32.030;115.880;2022-12-10T12:18:16;2.78;;;0.50;;
72369;SDS011;60343;-32.030;115.880;2022-12-10T12:20:48;3.97;;;0.60;;
72369;SDS011;60343;-32.030;115.880;2022-12-10T12:23:26;3.80;;;0.60;;
72369;SDS011;60343;-32.030;115.880;2022-12-10T12:25:58;7.18;;;0.70;;
72369;SDS011;60343;-32.030;115.880;2022-12-10T12:28:31;2.67;;;0.40;;
72369;SDS011;60343;-32.030;115.880;2022-12-10T12:31:03;3.72;;;0.70;;
72369;SDS011;60343;-32.030;115.880;2022-12-10T12:33:38;6.55;;;0.80;;
72369;SDS011;60343;-32.030;115.880;2022-12-10T12:36:10;2.80;;;0.40;;
72369;SDS011;60343;-32.030;115.880;2022-12-10T12:38:51;5.40;;;0.45;;
72369;SDS011;60343;-32.030;115.880;2022-12-10T12:41:24;2.83;;;0.50;;
72369;SDS011;60343;-32.030;115.880;2022-12-10T12:44:02;5.22;;;0.50;;
72369;SDS011;60343;-32.030;115.880;2022-12-10T12:46:37;4.40;;;0.73;;
72369;SDS011;60343;-32.030;115.880;2022-12-10T12:49:10;4.10;;;0.60;;
72369;SDS011;60343;-32.030;115.880;2022-12-10T12:51:45;2.13;;;0.57;;
72369;SDS011;60343;-32.030;115.880;2022-12-10T12:54:24;2.83;;;0.57;;
72369;SDS011;60343;-32.030;115.880;2022-12-10T12:59:44;2.90;;;0.68;;
72369;SDS011;60343;-32.030;115.880;2022-12-10T13:02:22;3.92;;;1.02;;
72369;SDS011;60343;-32.030;115.880;2022-12-10T13:05:04;6.10;;;1.15;;
72369;SDS011;60343;-32.030;115.880;2022-12-10T13:07:38;6.85;;;1.77;;
72369;SDS011;60343;-32.030;115.880;2022-12-10T13:13:28;5.80;;;2.30;;
72369;SDS011;60343;-32.030;115.880;2022-12-10T13:18:54;8.98;;;4.78;;
72369;SDS011;60343;-32.030;115.880;2022-12-10T13:21:59;12.95;;;6.30;;
72369;SDS011;60343;-32.030;115.880;2022-12-10T13:24:45;12.40;;;7.30;;
72369;SDS011;60343;-32.030;115.880;2022-12-10T13:27:29;12.68;;;7.38;;
72369;SDS011;60343;-32.030;115.880;2022-12-10T13:30:03;13.48;;;8.48;;
72369;SDS011;60343;-32.030;115.880;2022-12-10T13:32:52;13.15;;;7.82;;
72369;SDS011;60343;-32.030;115.880;2022-12-10T13:35:30;14.73;;;9.13;;
72369;SDS011;60343;-32.030;115.880;2022-12-10T13:38:17;17.98;;;9.75;;
72369;SDS011;60343;-32.030;115.880;2022-12-10T13:40:56;16.58;;;9.25;;
72369;SDS011;60343;-32.030;115.880;2022-12-10T13:43:26;15.30;;;9.65;;
72369;SDS011;60343;-32.030;115.880;2022-12-10T13:48:59;15.98;;;9.85;;
72369;SDS011;60343;-32.030;115.880;2022-12-10T13:51:32;17.92;;;11.00;;
72369;SDS011;60343;-32.030;115.880;2022-12-10T13:54:21;17.38;;;9.60;;
72369;SDS011;60343;-32.030;115.880;2022-12-10T13:57:14;18.17;;;10.75;;
72369;SDS011;60343;-32.030;115.880;2022-12-10T13:59:55;19.85;;;10.45;;
72369;SDS011;60343;-32.030;115.880;2022-12-10T14:05:36;16.90;;;10.30;;
72369;SDS011;60343;-32.030;115.880;2022-12-10T14:08:16;18.45;;;10.05;;
72369;SDS011;60343;-32.030;115.880;2022-12-10T14:10:47;18.00;;;10.43;;
72369;SDS011;60343;-32.030;115.880;2022-12-10T14:13:16;15.52;;;9.15;;
72369;SDS011;60343;-32.030;115.880;2022-12-10T14:15:51;16.33;;;9.02;;
72369;SDS011;60343;-32.030;115.880;2022-12-10T14:18:27;16.83;;;9.43;;
72369;SDS011;60343;-32.030;115.880;2022-12-10T14:20:55;16.83;;;9.55;;
72369;SDS011;60343;-32.030;115.880;2022-12-10T14:23:27;16.00;;;8.85;;
72369;SDS011;60343;-32.030;115.880;2022-12-10T14:26:02;14.98;;;8.23;;
72369;SDS011;60343;-32.030;115.880;2022-12-10T14:28:36;15.07;;;8.93;;
72369;SDS011;60343;-32.030;115.880;2022-12-10T14:31:07;13.93;;;8.48;;
72369;SDS011;60343;-32.030;115.880;2022-12-10T14:33:48;12.93;;;7.55;;
72369;SDS011;60343;-32.030;115.880;2022-12-10T14:36:22;15.43;;;8.15;;
72369;SDS011;60343;-32.030;115.880;2022-12-10T14:38:53;14.18;;;7.97;;
72369;SDS011;60343;-32.030;115.880;2022-12-10T14:41:22;14.75;;;7.97;;
72369;SDS011;60343;-32.030;115.880;2022-12-10T14:43:52;13.57;;;7.85;;
72369;SDS011;60343;-32.030;115.880;2022-12-10T14:46:22;13.73;;;7.15;;
72369;SDS011;60343;-32.030;115.880;2022-12-10T14:48:57;14.65;;;7.65;;
72369;SDS011;60343;-32.030;115.880;2022-12-10T14:51:26;12.70;;;6.75;;
72369;SDS011;60343;-32.030;115.880;2022-12-10T14:53:58;13.43;;;7.43;;
72369;SDS011;60343;-32.030;115.880;2022-12-10T14:56:26;13.18;;;6.38;;
72369;SDS011;60343;-32.030;115.880;2022-12-10T14:59:01;11.77;;;6.07;;
72369;SDS011;60343;-32.030;115.880;2022-12-10T15:01:36;12.15;;;6.45;;
72369;SDS011;60343;-32.030;115.880;2022-12-10T15:04:12;13.70;;;6.57;;